sensor_id;sensor_type;location;lat;lon;timestamp;pressure;altitude;pressure_sealevel;temperature;humidity
36190;BME280;22232;50.914;13.858;2023-02-13T00:00:49;99891.97;;;4.48;100.00
36190;BME280;22232;50.914;13.858;2023-02-13T00:03:16;99883.34;;;4.46;100.00
36190;BME280;22232;50.914;13.858;2023-02-13T00:05:44;99884.03;;;4.48;100.00
36190;BME280;22232;50.914;13.858;2023-02-13T00:08:11;99881.53;;;4.47;100.00
36190;BME280;22232;50.914;13.858;2023-02-13T00:10:39;99882.34;;;4.47;100.00
36190;BME280;22232;50.914;13.858;2023-02-13T00:13:07;99890.16;;;4.49;100.00
36190;BME280;22232;50.914;13.858;2023-02-13T00:15:34;99880.28;;;4.51;100.00
36190;BME280;22232;50.914;13.858;2023-02-13T00:18:02;99877.66;;;4.51;100.00
36190;BME280;22232;50.914;13.858;2023-02-13T00:20:29;99877.78;;;4.49;100.00
36190;BME280;22232;50.914;13.858;2023-02-13T00:22:58;99873.03;;;4.53;100.00
36190;BME280;22232;50.914;13.858;2023-02-13T00:25:26;99876.38;;;4.55;100.00
36190;BME280;22232;50.914;13.858;2023-02-13T00:27:53;99871.22;;;4.53;100.00
36190;BME280;22232;50.914;13.858;2023-02-13T00:30:21;99869.44;;;4.54;100.00
36190;BME280;22232;50.914;13.858;2023-02-13T00:32:50;99871.09;;;4.55;100.00
36190;BME280;22232;50.914;13.858;2023-02-13T00:35:18;99873.44;;;4.58;100.00
36190;BME280;22232;50.914;13.858;2023-02-13T00:37:45;99873.31;;;4.59;100.00
36190;BME280;22232;50.914;13.858;2023-02-13T00:40:13;99866.34;;;4.58;100.00
36190;BME280;22232;50.914;13.858;2023-02-13T00:42:41;99866.63;;;4.55;100.00
36190;BME280;22232;50.914;13.858;2023-02-13T00:45:08;99868.56;;;4.53;100.00
36190;BME280;22232;50.914;13.858;2023-02-13T00:47:36;99864.16;;;4.54;100.00
36190;BME280;22232;50.914;13.858;2023-02-13T00:50:04;99871.38;;;4.52;100.00
36190;BME280;22232;50.914;13.858;2023-02-13T00:52:31;99870.38;;;4.53;100.00
36190;BME280;22232;50.914;13.858;2023-02-13T00:54:59;99863.56;;;4.50;100.00
36190;BME280;22232;50.914;13.858;2023-02-13T00:57:27;99870.00;;;4.48;100.00
36190;BME280;22232;50.914;13.858;2023-02-13T00:59:55;99869.84;;;4.49;100.00
36190;BME280;22232;50.914;13.858;2023-02-13T01:02:23;99869.72;;;4.51;100.00
36190;BME280;22232;50.914;13.858;2023-02-13T01:04:51;99871.38;;;4.52;100.00
36190;BME280;22232;50.914;13.858;2023-02-13T01:07:18;99871.22;;;4.53;100.00
36190;BME280;22232;50.914;13.858;2023-02-13T01:09:45;99874.44;;;4.57;100.00
36190;BME280;22232;50.914;13.858;2023-02-13T01:12:13;99874.44;;;4.57;100.00
36190;BME280;22232;50.914;13.858;2023-02-13T01:14:42;99873.72;;;4.55;100.00
36190;BME280;22232;50.914;13.858;2023-02-13T01:17:10;99869.97;;;4.57;100.00
36190;BME280;22232;50.914;13.858;2023-02-13T01:19:39;99869.16;;;4.57;100.00
36190;BME280;22232;50.914;13.858;2023-02-13T01:22:08;99868.56;;;4.53;100.00
36190;BME280;22232;50.914;13.858;2023-02-13T01:24:35;99869.81;;;4.59;100.00
36190;BME280;22232;50.914;13.858;2023-02-13T01:27:03;99871.09;;;4.55;100.00
36190;BME280;22232;50.914;13.858;2023-02-13T01:29:30;99865.53;;;4.58;100.00
36190;BME280;22232;50.914;13.858;2023-02-13T01:32:00;99861.78;;;4.60;100.00
36190;BME280;22232;50.914;13.858;2023-02-13T01:34:33;99862.59;;;4.61;100.00
36190;BME280;22232;50.914;13.858;2023-02-13T01:37:00;99859.97;;;4.61;100.00
36190;BME280;22232;50.914;13.858;2023-02-13T01:39:28;99866.63;;;4.65;100.00
36190;BME280;22232;50.914;13.858;2023-02-13T01:41:56;99858.84;;;4.64;100.00
36190;BME280;22232;50.914;13.858;2023-02-13T01:44:50;99860.25;;;4.58;100.00
36190;BME280;22232;50.914;13.858;2023-02-13T01:47:38;99858.59;;;4.57;100.00
36190;BME280;22232;50.914;13.858;2023-02-13T01:50:15;99858.28;;;4.60;100.00
36190;BME280;22232;50.914;13.858;2023-02-13T01:52:49;99863.72;;;4.58;100.00
36190;BME280;22232;50.914;13.858;2023-02-13T01:55:18;99858.41;;;4.58;100.00
36190;BME280;22232;50.914;13.858;2023-02-13T01:57:53;99854.94;;;4.58;100.00
36190;BME280;22232;50.914;13.858;2023-02-13T02:00:23;99853.00;;;4.60;100.00
36190;BME280;22232;50.914;13.858;2023-02-13T02:02:55;99848.84;;;4.57;100.00
36190;BME280;22232;50.914;13.858;2023-02-13T02:05:27;99856.91;;;4.56;100.00
36190;BME280;22232;50.914;13.858;2023-02-13T02:07:58;99854.25;;;4.56;100.00
36190;BME280;22232;50.914;13.858;2023-02-13T02:10:26;99847.72;;;4.60;100.00
36190;BME280;22232;50.914;13.858;2023-02-13T02:13:14;99848.28;;;4.54;100.00
36190;BME280;22232;50.914;13.858;2023-02-13T02:15:43;99848.13;;;4.55;100.00
36190;BME280;22232;50.914;13.858;2023-02-13T02:18:18;99856.50;;;4.51;100.00
36190;BME280;22232;50.914;13.858;2023-02-13T02:24:20;99842.03;;;4.55;100.00
36190;BME280;22232;50.914;13.858;2023-02-13T02:27:19;99842.16;;;4.53;100.00
36190;BME280;22232;50.914;13.858;2023-02-13T02:35:56;99848.41;;;4.52;100.00
36190;BME280;22232;50.914;13.858;2023-02-13T02:49:50;99851.88;;;4.53;100.00
36190;BME280;22232;50.914;13.858;2023-02-13T02:55:17;99860.53;;;4.55;100.00
36190;BME280;22232;50.914;13.858;2023-02-13T02:58:05;99849.78;;;4.56;100.00
36190;BME280;22232;50.914;13.858;2023-02-13T03:00:57;99860.25;;;4.58;100.00
36190;BME280;22232;50.914;13.858;2023-02-13T03:03:49;99859.16;;;4.51;100.00
36190;BME280;22232;50.914;13.858;2023-02-13T03:06:45;99848.56;;;4.51;100.00
36190;BME280;22232;50.914;13.858;2023-02-13T03:09:22;99859.16;;;4.51;100.00
36190;BME280;22232;50.914;13.858;2023-02-13T03:12:09;99853.00;;;4.50;100.00
36190;BME280;22232;50.914;13.858;2023-02-13T03:14:57;99859.44;;;4.48;100.00
36190;BME280;22232;50.914;13.858;2023-02-13T03:17:24;99863.19;;;4.45;100.00
36190;BME280;22232;50.914;13.858;2023-02-13T03:32:10;99863.03;;;4.47;100.00
36190;BME280;22232;50.914;13.858;2023-02-13T03:34:51;99858.44;;;4.49;100.00
36190;BME280;22232;50.914;13.858;2023-02-13T03:37:43;99860.66;;;4.44;100.00
36190;BME280;22232;50.914;13.858;2023-02-13T03:40:32;99865.81;;;4.45;100.00
36190;BME280;22232;50.914;13.858;2023-02-13T03:43:14;99864.28;;;4.43;100.00
36190;BME280;22232;50.914;13.858;2023-02-13T03:45:45;99865.13;;;4.43;100.00
36190;BME280;22232;50.914;13.858;2023-02-13T03:48:31;99867.63;;;4.45;100.00
36190;BME280;22232;50.914;13.858;2023-02-13T03:51:24;99866.66;;;4.46;100.00
36190;BME280;22232;50.914;13.858;2023-02-13T03:53:59;99861.38;;;4.46;100.00
36190;BME280;22232;50.914;13.858;2023-02-13T03:56:30;99862.47;;;4.43;100.00
36190;BME280;22232;50.914;13.858;2023-02-13T03:59:25;99863.19;;;4.45;100.00
36190;BME280;22232;50.914;13.858;2023-02-13T04:04:51;99866.09;;;4.42;100.00
36190;BME280;22232;50.914;13.858;2023-02-13T04:07:21;99865.94;;;4.44;100.00
36190;BME280;22232;50.914;13.858;2023-02-13T04:10:16;99868.31;;;4.47;100.00
36190;BME280;22232;50.914;13.858;2023-02-13T04:12:59;99869.56;;;4.43;100.00
36190;BME280;22232;50.914;13.858;2023-02-13T04:15:34;99870.28;;;4.45;100.00
36190;BME280;22232;50.914;13.858;2023-02-13T04:18:13;99878.91;;;4.37;100.00
36190;BME280;22232;50.914;13.858;2023-02-13T04:20:42;99868.03;;;4.40;100.00
36190;BME280;22232;50.914;13.858;2023-02-13T04:23:11;99865.28;;;4.42;100.00
36190;BME280;22232;50.914;13.858;2023-02-13T04:25:40;99867.34;;;4.38;100.00
36190;BME280;22232;50.914;13.858;2023-02-13T04:28:10;99862.75;;;4.40;100.00
36190;BME280;22232;50.914;13.858;2023-02-13T04:30:38;99860.94;;;4.41;100.00
36190;BME280;22232;50.914;13.858;2023-02-13T04:33:05;99850.25;;;4.42;100.00
36190;BME280;22232;50.914;13.858;2023-02-13T04:35:33;99856.66;;;4.40;100.00
36190;BME280;22232;50.914;13.858;2023-02-13T04:38:01;99861.38;;;4.36;100.00
36190;BME280;22232;50.914;13.858;2023-02-13T04:40:29;99868.88;;;4.41;100.00
36190;BME280;22232;50.914;13.858;2023-02-13T04:42:56;99860.94;;;4.41;100.00
36190;BME280;22232;50.914;13.858;2023-02-13T04:45:24;99864.69;;;4.38;100.00
36190;BME280;22232;50.914;13.858;2023-02-13T04:47:53;99867.06;;;4.41;100.00
36190;BME280;22232;50.914;13.858;2023-02-13T04:50:21;99859.13;;;4.41;100.00
36190;BME280;22232;50.914;13.858;2023-02-13T04:52:53;99862.47;;;4.43;100.00
36190;BME280;22232;50.914;13.858;2023-02-13T04:55:22;99866.66;;;4.46;100.00
36190;BME280;22232;50.914;13.858;2023-02-13T04:57:51;99859.00;;;4.43;100.00
36190;BME280;22232;50.914;13.858;2023-02-13T05:00:21;99866.94;;;4.43;100.00
36190;BME280;22232;50.914;13.858;2023-02-13T05:02:49;99866.94;;;4.43;100.00
36190;BME280;22232;50.914;13.858;2023-02-13T05:05:16;99865.28;;;4.42;100.00
36190;BME280;22232;50.914;13.858;2023-02-13T05:07:44;99863.59;;;4.41;100.00
36190;BME280;22232;50.914;13.858;2023-02-13T05:10:12;99865.28;;;4.42;100.00
36190;BME280;22232;50.914;13.858;2023-02-13T05:12:39;99864.28;;;4.43;100.00
36190;BME280;22232;50.914;13.858;2023-02-13T05:15:08;99855.38;;;4.44;100.00
36190;BME280;22232;50.914;13.858;2023-02-13T05:17:35;99853.03;;;4.41;100.00
36190;BME280;22232;50.914;13.858;2023-02-13T05:20:03;99862.63;;;4.42;100.00
36190;BME280;22232;50.914;13.858;2023-02-13T05:22:33;99856.50;;;4.41;100.00
36190;BME280;22232;50.914;13.858;2023-02-13T05:25:19;99860.28;;;4.39;100.00
36190;BME280;22232;50.914;13.858;2023-02-13T05:27:47;99857.63;;;4.39;100.00
36190;BME280;22232;50.914;13.858;2023-02-13T05:30:14;99860.41;;;4.37;100.00
36190;BME280;22232;50.914;13.858;2023-02-13T05:32:42;99861.38;;;4.36;100.00
36190;BME280;22232;50.914;13.858;2023-02-13T05:35:10;99859.41;;;4.38;100.00
36190;BME280;22232;50.914;13.858;2023-02-13T05:37:37;99864.16;;;4.34;100.00
36190;BME280;22232;50.914;13.858;2023-02-13T05:40:05;99862.91;;;4.39;100.00
36190;BME280;22232;50.914;13.858;2023-02-13T05:42:33;99867.34;;;4.38;100.00
36190;BME280;22232;50.914;13.858;2023-02-13T05:49:14;99861.50;;;4.34;100.00
36190;BME280;22232;50.914;13.858;2023-02-13T05:51:42;99865.13;;;4.33;100.00
36190;BME280;22232;50.914;13.858;2023-02-13T05:54:10;99860.84;;;4.32;100.00
36190;BME280;22232;50.914;13.858;2023-02-13T05:56:38;99864.31;;;4.33;100.00
36190;BME280;22232;50.914;13.858;2023-02-13T05:59:05;99863.75;;;4.29;100.00
36190;BME280;22232;50.914;13.858;2023-02-13T06:01:33;99861.78;;;4.31;100.00
36190;BME280;22232;50.914;13.858;2023-02-13T06:04:00;99865.25;;;4.32;100.00
36190;BME280;22232;50.914;13.858;2023-02-13T06:06:30;99868.06;;;4.30;100.00
36190;BME280;22232;50.914;13.858;2023-02-13T06:08:57;99868.19;;;4.29;100.00
36190;BME280;22232;50.914;13.858;2023-02-13T06:11:25;99865.69;;;4.27;100.00
36190;BME280;22232;50.914;13.858;2023-02-13T06:13:52;99870.00;;;4.28;100.00
36190;BME280;22232;50.914;13.858;2023-02-13T06:16:20;99874.59;;;4.26;100.00
36190;BME280;22232;50.914;13.858;2023-02-13T06:18:48;99868.34;;;4.27;100.00
36190;BME280;22232;50.914;13.858;2023-02-13T06:21:16;99879.59;;;4.29;100.00
36190;BME280;22232;50.914;13.858;2023-02-13T06:23:43;99874.59;;;4.26;100.00
36190;BME280;22232;50.914;13.858;2023-02-13T06:26:11;99879.72;;;4.28;100.00
36190;BME280;22232;50.914;13.858;2023-02-13T06:28:38;99881.66;;;4.26;100.00
36190;BME280;22232;50.914;13.858;2023-02-13T06:31:06;99881.53;;;4.27;100.00
36190;BME280;22232;50.914;13.858;2023-02-13T06:33:34;99876.09;;;4.29;100.00
36190;BME280;22232;50.914;13.858;2023-02-13T06:36:03;99887.94;;;4.25;100.00
36190;BME280;22232;50.914;13.858;2023-02-13T06:38:30;99885.16;;;4.26;100.00
36190;BME280;22232;50.914;13.858;2023-02-13T06:41:00;99892.09;;;4.27;100.00
36190;BME280;22232;50.914;13.858;2023-02-13T06:43:30;99896.13;;;4.31;100.00
36190;BME280;22232;50.914;13.858;2023-02-13T06:45:58;99891.56;;;4.33;100.00
36190;BME280;22232;50.914;13.858;2023-02-13T06:48:26;99900.31;;;4.34;100.00
36190;BME280;22232;50.914;13.858;2023-02-13T06:50:53;99905.03;;;4.30;100.00
36190;BME280;22232;50.914;13.858;2023-02-13T06:53:21;99903.22;;;4.31;100.00
36190;BME280;22232;50.914;13.858;2023-02-13T06:55:52;99904.88;;;4.32;100.00
36190;BME280;22232;50.914;13.858;2023-02-13T06:58:20;99908.50;;;4.31;100.00
36190;BME280;22232;50.914;13.858;2023-02-13T07:00:49;99908.22;;;4.34;100.00
36190;BME280;22232;50.914;13.858;2023-02-13T07:03:17;99916.03;;;4.35;100.00
36190;BME280;22232;50.914;13.858;2023-02-13T07:05:45;99911.97;;;4.31;100.00
36190;BME280;22232;50.914;13.858;2023-02-13T07:08:12;99904.31;;;4.38;100.00
36190;BME280;22232;50.914;13.858;2023-02-13T07:10:40;99907.84;;;4.39;100.00
36190;BME280;22232;50.914;13.858;2023-02-13T07:13:09;99904.22;;;4.40;100.00
36190;BME280;22232;50.914;13.858;2023-02-13T07:15:37;99905.88;;;4.41;100.00
36190;BME280;22232;50.914;13.858;2023-02-13T07:18:05;99910.88;;;4.44;100.00
36190;BME280;22232;50.914;13.858;2023-02-13T07:20:34;99908.38;;;4.42;100.00
36190;BME280;22232;50.914;13.858;2023-02-13T07:23:03;99909.91;;;4.45;100.00
36190;BME280;22232;50.914;13.858;2023-02-13T07:25:31;99904.19;;;4.49;100.00
36190;BME280;22232;50.914;13.858;2023-02-13T07:28:03;99906.72;;;4.51;100.00
36190;BME280;22232;50.914;13.858;2023-02-13T07:30:32;99902.38;;;4.50;100.00
36190;BME280;22232;50.914;13.858;2023-02-13T07:33:01;99915.31;;;4.53;100.00
36190;BME280;22232;50.914;13.858;2023-02-13T07:35:30;99916.16;;;4.53;100.00
36190;BME280;22232;50.914;13.858;2023-02-13T07:37:58;99915.03;;;4.56;100.00
36190;BME280;22232;50.914;13.858;2023-02-13T07:40:27;99912.38;;;4.56;100.00
36190;BME280;22232;50.914;13.858;2023-02-13T07:42:55;99913.81;;;4.60;100.00
36190;BME280;22232;50.914;13.858;2023-02-13T07:45:22;99909.47;;;4.59;100.00
36190;BME280;22232;50.914;13.858;2023-02-13T07:47:50;99909.75;;;4.66;100.00
36190;BME280;22232;50.914;13.858;2023-02-13T07:50:17;99906.25;;;4.65;100.00
36190;BME280;22232;50.914;13.858;2023-02-13T07:52:52;99909.19;;;4.72;100.00
36190;BME280;22232;50.914;13.858;2023-02-13T07:55:20;99908.06;;;4.74;100.00
36190;BME280;22232;50.914;13.858;2023-02-13T07:57:48;99911.56;;;4.75;100.00
36190;BME280;22232;50.914;13.858;2023-02-13T08:00:17;99908.75;;;4.76;100.00
36190;BME280;22232;50.914;13.858;2023-02-13T08:02:45;99915.84;;;4.86;100.00
36190;BME280;22232;50.914;13.858;2023-02-13T08:05:13;99915.00;;;4.85;100.00
36190;BME280;22232;50.914;13.858;2023-02-13T08:07:41;99907.91;;;4.86;100.00
36190;BME280;22232;50.914;13.858;2023-02-13T08:10:11;99909.56;;;4.87;100.00
36190;BME280;22232;50.914;13.858;2023-02-13T08:12:58;99908.31;;;4.91;100.00
36190;BME280;22232;50.914;13.858;2023-02-13T08:15:26;99916.63;;;4.96;100.00
36190;BME280;22232;50.914;13.858;2023-02-13T08:17:53;99917.50;;;4.96;100.00
36190;BME280;22232;50.914;13.858;2023-02-13T08:20:21;99915.25;;;5.01;100.00
36190;BME280;22232;50.914;13.858;2023-02-13T08:22:50;99924.44;;;4.97;100.00
36190;BME280;22232;50.914;13.858;2023-02-13T08:25:17;99925.84;;;4.92;100.00
36190;BME280;22232;50.914;13.858;2023-02-13T08:27:46;99924.88;;;4.83;100.00
36190;BME280;22232;50.914;13.858;2023-02-13T08:30:14;99925.16;;;4.90;100.00
36190;BME280;22232;50.914;13.858;2023-02-13T08:32:41;99926.66;;;4.92;100.00
36190;BME280;22232;50.914;13.858;2023-02-13T08:35:21;99926.13;;;4.89;100.00
36190;BME280;22232;50.914;13.858;2023-02-13T08:37:49;99923.34;;;4.90;100.00
36190;BME280;22232;50.914;13.858;2023-02-13T08:40:16;99923.63;;;4.97;100.00
36190;BME280;22232;50.914;13.858;2023-02-13T08:42:44;99924.72;;;5.04;100.00
36190;BME280;22232;50.914;13.858;2023-02-13T08:45:11;99924.28;;;5.09;100.00
36190;BME280;22232;50.914;13.858;2023-02-13T08:47:39;99931.50;;;5.16;100.00
36190;BME280;22232;50.914;13.858;2023-02-13T08:50:07;99924.66;;;5.23;100.00
36190;BME280;22232;50.914;13.858;2023-02-13T08:52:34;99926.03;;;5.27;100.00
36190;BME280;22232;50.914;13.858;2023-02-13T08:55:02;99926.16;;;5.36;100.00
36190;BME280;22232;50.914;13.858;2023-02-13T08:57:30;99937.56;;;5.36;100.00
36190;BME280;22232;50.914;13.858;2023-02-13T08:59:57;99931.03;;;5.31;100.00
36190;BME280;22232;50.914;13.858;2023-02-13T09:02:25;99934.22;;;5.34;100.00
36190;BME280;22232;50.914;13.858;2023-02-13T09:04:52;99924.91;;;5.30;100.00
36190;BME280;22232;50.914;13.858;2023-02-13T09:07:20;99925.63;;;5.22;100.00
36190;BME280;22232;50.914;13.858;2023-02-13T09:09:47;99923.81;;;5.33;100.00
36190;BME280;22232;50.914;13.858;2023-02-13T09:12:15;99926.13;;;5.45;100.00
36190;BME280;22232;50.914;13.858;2023-02-13T09:14:42;99924.69;;;5.51;100.00
36190;BME280;22232;50.914;13.858;2023-02-13T09:17:10;99930.41;;;5.46;100.00
36190;BME280;22232;50.914;13.858;2023-02-13T09:19:37;99930.13;;;5.49;100.00
36190;BME280;22232;50.914;13.858;2023-02-13T09:22:05;99943.94;;;5.43;100.00
36190;BME280;22232;50.914;13.858;2023-02-13T09:24:32;99942.63;;;5.29;100.00
36190;BME280;22232;50.914;13.858;2023-02-13T09:27:00;99938.03;;;5.22;100.00
36190;BME280;22232;50.914;13.858;2023-02-13T09:29:27;99940.13;;;5.18;100.00
36190;BME280;22232;50.914;13.858;2023-02-13T09:31:58;99945.56;;;5.07;100.00
36190;BME280;22232;50.914;13.858;2023-02-13T09:34:25;99954.34;;;5.07;100.00
36190;BME280;22232;50.914;13.858;2023-02-13T09:36:53;99948.50;;;5.04;100.00
36190;BME280;22232;50.914;13.858;2023-02-13T09:39:21;99946.56;;;5.06;100.00
36190;BME280;22232;50.914;13.858;2023-02-13T09:41:50;99949.50;;;5.03;100.00
36190;BME280;22232;50.914;13.858;2023-02-13T09:47:08;99947.84;;;4.92;100.00
36190;BME280;22232;50.914;13.858;2023-02-13T09:49:44;99950.06;;;4.97;100.00
36190;BME280;22232;50.914;13.858;2023-02-13T09:52:13;99953.66;;;5.05;100.00
36190;BME280;22232;50.914;13.858;2023-02-13T09:54:41;99953.22;;;5.10;100.00
36190;BME280;22232;50.914;13.858;2023-02-13T09:57:21;99950.31;;;5.03;100.00
36190;BME280;22232;50.914;13.858;2023-02-13T10:00:07;99958.22;;;5.13;100.00
36190;BME280;22232;50.914;13.858;2023-02-13T10:03:05;99953.66;;;5.15;100.00
36190;BME280;22232;50.914;13.858;2023-02-13T10:05:45;99956.44;;;5.04;100.00
36190;BME280;22232;50.914;13.858;2023-02-13T10:16:59;99955.94;;;5.38;100.00
36190;BME280;22232;50.914;13.858;2023-02-13T10:21:58;99953.00;;;5.41;100.00
36190;BME280;22232;50.914;13.858;2023-02-13T10:24:34;99955.47;;;5.52;100.00
36190;BME280;22232;50.914;13.858;2023-02-13T10:27:15;99956.31;;;5.52;100.00
36190;BME280;22232;50.914;13.858;2023-02-13T10:30:02;99949.63;;;5.48;100.00
36190;BME280;22232;50.914;13.858;2023-02-13T10:35:42;99942.31;;;5.70;100.00
36190;BME280;22232;50.914;13.858;2023-02-13T10:38:15;99943.13;;;5.70;100.00
36190;BME280;22232;50.914;13.858;2023-02-13T10:40:58;99934.59;;;5.77;100.00
36190;BME280;22232;50.914;13.858;2023-02-13T10:46:46;99916.94;;;5.67;100.00
36190;BME280;22232;50.914;13.858;2023-02-13T10:51:52;99914.69;;;5.72;100.00
36190;BME280;22232;50.914;13.858;2023-02-13T10:55:12;99909.66;;;5.79;100.00
36190;BME280;22232;50.914;13.858;2023-02-13T11:00:19;99900.41;;;5.83;100.00
36190;BME280;22232;50.914;13.858;2023-02-13T11:02:52;99903.03;;;5.93;100.00
36190;BME280;22232;50.914;13.858;2023-02-13T11:05:25;99907.47;;;5.92;100.00
36190;BME280;22232;50.914;13.858;2023-02-13T11:07:59;99904.28;;;5.89;100.00
36190;BME280;22232;50.914;13.858;2023-02-13T11:10:28;99893.81;;;5.87;100.00
36190;BME280;22232;50.914;13.858;2023-02-13T11:12:55;99901.25;;;5.84;100.00
36190;BME280;22232;50.914;13.858;2023-02-13T11:15:30;99893.69;;;5.89;100.00
36190;BME280;22232;50.914;13.858;2023-02-13T11:18:12;99892.00;;;5.97;100.00
36190;BME280;22232;50.914;13.858;2023-02-13T11:20:42;99896.16;;;6.00;100.00
36190;BME280;22232;50.914;13.858;2023-02-13T11:25:59;99895.94;;;6.11;100.00
36190;BME280;22232;50.914;13.858;2023-02-13T11:28:34;99891.78;;;6.09;100.00
36190;BME280;22232;50.914;13.858;2023-02-13T11:33:40;99896.41;;;6.25;100.00
36190;BME280;22232;50.914;13.858;2023-02-13T11:36:15;99890.03;;;6.17;100.00
36190;BME280;22232;50.914;13.858;2023-02-13T11:38:43;99888.22;;;6.18;100.00
36190;BME280;22232;50.914;13.858;2023-02-13T11:41:12;99885.84;;;6.33;100.00
36190;BME280;22232;50.914;13.858;2023-02-13T11:43:53;99886.25;;;6.38;100.00
36190;BME280;22232;50.914;13.858;2023-02-13T11:46:29;99882.97;;;6.44;100.00
36190;BME280;22232;50.914;13.858;2023-02-13T11:49:03;99873.28;;;6.53;100.00
36190;BME280;22232;50.914;13.858;2023-02-13T11:51:56;99876.97;;;6.60;100.00
36190;BME280;22232;50.914;13.858;2023-02-13T11:54:31;99866.84;;;6.55;100.00
36190;BME280;22232;50.914;13.858;2023-02-13T11:57:15;99867.88;;;6.62;100.00
36190;BME280;22232;50.914;13.858;2023-02-13T11:59:47;99867.47;;;6.49;100.00
36190;BME280;22232;50.914;13.858;2023-02-13T12:04:43;99856.16;;;6.47;100.00
36190;BME280;22232;50.914;13.858;2023-02-13T12:07:15;99862.00;;;6.51;100.00
36190;BME280;22232;50.914;13.858;2023-02-13T12:09:46;99866.22;;;6.61;100.00
36190;BME280;22232;50.914;13.858;2023-02-13T12:12:29;99849.84;;;6.66;100.00
36190;BME280;22232;50.914;13.858;2023-02-13T12:15:00;99846.34;;;6.65;100.00
36190;BME280;22232;50.914;13.858;2023-02-13T12:17:28;99845.28;;;6.76;100.00
36190;BME280;22232;50.914;13.858;2023-02-13T12:19:59;99835.25;;;6.88;100.00
36190;BME280;22232;50.914;13.858;2023-02-13T12:42:09;99821.22;;;7.04;100.00
36190;BME280;22232;50.914;13.858;2023-02-13T12:55:49;99810.38;;;7.23;100.00
36190;BME280;22232;50.914;13.858;2023-02-13T13:01:18;99814.38;;;7.35;100.00
36190;BME280;22232;50.914;13.858;2023-02-13T13:09:29;99809.38;;;7.24;100.00
36190;BME280;22232;50.914;13.858;2023-02-13T13:14:40;99806.00;;;7.14;100.00
36190;BME280;22232;50.914;13.858;2023-02-13T13:17:48;99805.88;;;7.16;100.00
36190;BME280;22232;50.914;13.858;2023-02-13T13:28:55;99794.28;;;7.25;100.00
36190;BME280;22232;50.914;13.858;2023-02-13T13:31:25;99800.78;;;7.30;100.00
36190;BME280;22232;50.914;13.858;2023-02-13T13:33:59;99797.13;;;7.31;100.00
36190;BME280;22232;50.914;13.858;2023-02-13T13:36:47;99794.50;;;7.40;100.00
36190;BME280;22232;50.914;13.858;2023-02-13T13:47:45;99794.78;;;7.28;100.00
36190;BME280;22232;50.914;13.858;2023-02-13T13:50:21;99796.25;;;7.23;100.00
36190;BME280;22232;50.914;13.858;2023-02-13T13:53:12;99796.63;;;7.28;100.00
36190;BME280;22232;50.914;13.858;2023-02-13T14:01:15;99807.41;;;6.92;100.00
36190;BME280;22232;50.914;13.858;2023-02-13T14:03:47;99803.94;;;6.92;100.00
36190;BME280;22232;50.914;13.858;2023-02-13T14:06:26;99807.22;;;6.94;100.00
36190;BME280;22232;50.914;13.858;2023-02-13T14:08:55;99799.75;;;6.89;100.00
36190;BME280;22232;50.914;13.858;2023-02-13T14:11:38;99796.13;;;6.90;100.00
36190;BME280;22232;50.914;13.858;2023-02-13T14:16:59;99799.41;;;6.84;100.00
36190;BME280;22232;50.914;13.858;2023-02-13T14:19:37;99803.19;;;6.81;100.00
36190;BME280;22232;50.914;13.858;2023-02-13T14:24:52;99806.91;;;6.62;100.00
36190;BME280;22232;50.914;13.858;2023-02-13T14:27:24;99813.19;;;6.61;100.00
36190;BME280;22232;50.914;13.858;2023-02-13T14:29:53;99804.72;;;6.58;100.00
36190;BME280;22232;50.914;13.858;2023-02-13T14:32:32;99803.22;;;6.55;100.00
36190;BME280;22232;50.914;13.858;2023-02-13T14:35:24;99803.66;;;6.51;100.00
36190;BME280;22232;50.914;13.858;2023-02-13T14:37:53;99796.50;;;6.43;100.00
36190;BME280;22232;50.914;13.858;2023-02-13T14:42:58;99807.88;;;6.35;100.00
36190;BME280;22232;50.914;13.858;2023-02-13T14:45:45;99801.84;;;6.25;100.00
36190;BME280;22232;50.914;13.858;2023-02-13T14:48:14;99796.97;;;6.20;100.00
36190;BME280;22232;50.914;13.858;2023-02-13T14:50:52;99794.13;;;6.14;100.00
36190;BME280;22232;50.914;13.858;2023-02-13T14:53:29;99789.81;;;6.13;100.00
36190;BME280;22232;50.914;13.858;2023-02-13T14:56:04;99780.03;;;6.13;100.00
36190;BME280;22232;50.914;13.858;2023-02-13T14:58:35;99783.09;;;6.01;100.00
36190;BME280;22232;50.914;13.858;2023-02-13T15:03:53;99777.91;;;5.81;100.00
36190;BME280;22232;50.914;13.858;2023-02-13T15:06:33;99779.44;;;5.84;100.00
36190;BME280;22232;50.914;13.858;2023-02-13T15:09:11;99775.25;;;5.81;100.00
36190;BME280;22232;50.914;13.858;2023-02-13T15:11:42;99767.25;;;5.73;100.00
36190;BME280;22232;50.914;13.858;2023-02-13T15:16:53;99782.66;;;5.60;100.00
36190;BME280;22232;50.914;13.858;2023-02-13T15:19:22;99781.47;;;5.54;100.00
36190;BME280;22232;50.914;13.858;2023-02-13T15:21:53;99772.91;;;5.42;100.00
36190;BME280;22232;50.914;13.858;2023-02-13T15:24:22;99768.22;;;5.36;100.00
36190;BME280;22232;50.914;13.858;2023-02-13T15:27:01;99765.06;;;5.23;100.00
36190;BME280;22232;50.914;13.858;2023-02-13T15:29:30;99766.50;;;5.17;100.00
36190;BME280;22232;50.914;13.858;2023-02-13T15:32:35;99760.97;;;5.11;100.00
36190;BME280;22232;50.914;13.858;2023-02-13T15:35:30;99753.78;;;5.03;100.00
36190;BME280;22232;50.914;13.858;2023-02-13T15:37:58;99746.75;;;4.94;100.00
36190;BME280;22232;50.914;13.858;2023-02-13T15:40:29;99748.44;;;4.85;100.00
36190;BME280;22232;50.914;13.858;2023-02-13T15:42:57;99742.66;;;4.72;100.00
36190;BME280;22232;50.914;13.858;2023-02-13T15:45:27;99746.72;;;4.66;100.00
36190;BME280;22232;50.914;13.858;2023-02-13T15:47:56;99745.03;;;4.65;100.00
36190;BME280;22232;50.914;13.858;2023-02-13T15:50:33;99752.28;;;4.63;100.00